sensor_id;sensor_type;location;lat;lon;timestamp;pressure;altitude;pressure_sealevel;temperature;humidity
77147;BME280;66121;52.584;9.694;2024-01-30T00:00:53;102410.13;;;3.63;100.00
77147;BME280;66121;52.584;9.694;2024-01-30T00:03:19;102415.59;;;3.81;100.00
77147;BME280;66121;52.584;9.694;2024-01-30T00:05:44;102425.56;;;3.91;100.00
77147;BME280;66121;52.584;9.694;2024-01-30T00:08:10;102404.84;;;3.71;100.00
77147;BME280;66121;52.584;9.694;2024-01-30T00:10:35;102416.41;;;3.82;100.00
77147;BME280;66121;52.584;9.694;2024-01-30T00:13:01;102393.97;;;3.85;100.00
77147;BME280;66121;52.584;9.694;2024-01-30T00:15:27;102410.34;;;4.04;100.00
77147;BME280;66121;52.584;9.694;2024-01-30T00:17:53;102399.88;;;4.24;100.00
77147;BME280;66121;52.584;9.694;2024-01-30T00:20:18;102394.63;;;4.60;100.00
77147;BME280;66121;52.584;9.694;2024-01-30T00:22:44;102395.78;;;5.00;100.00
77147;BME280;66121;52.584;9.694;2024-01-30T00:25:09;102369.31;;;5.09;100.00
77147;BME280;66121;52.584;9.694;2024-01-30T00:27:34;102359.28;;;5.18;100.00
77147;BME280;66121;52.584;9.694;2024-01-30T00:30:00;102373.84;;;5.41;100.00
77147;BME280;66121;52.584;9.694;2024-01-30T00:32:25;102359.25;;;5.45;100.00
77147;BME280;66121;52.584;9.694;2024-01-30T00:34:50;102359.25;;;5.45;100.00
77147;BME280;66121;52.584;9.694;2024-01-30T00:37:16;102355.69;;;5.45;100.00
77147;BME280;66121;52.584;9.694;2024-01-30T00:39:41;102339.75;;;5.47;100.00
77147;BME280;66121;52.584;9.694;2024-01-30T00:42:07;102348.63;;;5.66;100.00
77147;BME280;66121;52.584;9.694;2024-01-30T00:44:35;102339.63;;;5.65;100.00
77147;BME280;66121;52.584;9.694;2024-01-30T00:47:02;102336.25;;;5.68;100.00
77147;BME280;66121;52.584;9.694;2024-01-30T00:49:28;102340.69;;;5.78;100.00
77147;BME280;66121;52.584;9.694;2024-01-30T00:51:53;102347.56;;;5.89;100.00
77147;BME280;66121;52.584;9.694;2024-01-30T00:54:18;102338.63;;;5.83;99.73
77147;BME280;66121;52.584;9.694;2024-01-30T00:56:44;102342.28;;;5.93;99.58
77147;BME280;66121;52.584;9.694;2024-01-30T00:59:11;102341.91;;;5.86;99.23
77147;BME280;66121;52.584;9.694;2024-01-30T01:01:36;102330.41;;;5.83;99.46
77147;BME280;66121;52.584;9.694;2024-01-30T01:04:01;102351.00;;;5.95;99.09
77147;BME280;66121;52.584;9.694;2024-01-30T01:06:27;102349.00;;;5.87;99.10
77147;BME280;66121;52.584;9.694;2024-01-30T01:08:52;102339.88;;;5.77;99.11
77147;BME280;66121;52.584;9.694;2024-01-30T01:11:18;102355.50;;;5.77;99.43
77147;BME280;66121;52.584;9.694;2024-01-30T01:13:43;102353.53;;;5.91;98.86
77147;BME280;66121;52.584;9.694;2024-01-30T01:16:08;102332.75;;;5.76;99.02
77147;BME280;66121;52.584;9.694;2024-01-30T01:18:33;102350.38;;;5.84;99.28
77147;BME280;66121;52.584;9.694;2024-01-30T01:20:59;102355.59;;;5.86;99.07
77147;BME280;66121;52.584;9.694;2024-01-30T01:23:25;102356.81;;;5.79;99.14
77147;BME280;66121;52.584;9.694;2024-01-30T01:25:50;102347.72;;;5.70;99.12
77147;BME280;66121;52.584;9.694;2024-01-30T01:28:16;102361.28;;;5.75;99.47
77147;BME280;66121;52.584;9.694;2024-01-30T01:30:41;102357.13;;;5.78;99.51
77147;BME280;66121;52.584;9.694;2024-01-30T01:33:06;102346.44;;;5.90;99.77
77147;BME280;66121;52.584;9.694;2024-01-30T01:35:32;102351.94;;;5.90;99.43
77147;BME280;66121;52.584;9.694;2024-01-30T01:37:57;102343.22;;;5.88;99.29
77147;BME280;66121;52.584;9.694;2024-01-30T01:40:25;102343.59;;;5.95;99.23
77147;BME280;66121;52.584;9.694;2024-01-30T01:42:52;102336.09;;;5.87;99.21
77147;BME280;66121;52.584;9.694;2024-01-30T01:45:18;102350.50;;;5.93;99.54
77147;BME280;66121;52.584;9.694;2024-01-30T01:47:47;102351.44;;;5.88;99.13
77147;BME280;66121;52.584;9.694;2024-01-30T01:50:15;102349.19;;;5.90;99.28
77147;BME280;66121;52.584;9.694;2024-01-30T01:52:43;102346.03;;;5.83;99.39
77147;BME280;66121;52.584;9.694;2024-01-30T01:55:09;102344.22;;;5.78;99.73
77147;BME280;66121;52.584;9.694;2024-01-30T01:57:35;102347.72;;;5.70;99.91
77147;BME280;66121;52.584;9.694;2024-01-30T02:00:01;102329.84;;;5.51;100.00
77147;BME280;66121;52.584;9.694;2024-01-30T02:02:30;102351.34;;;5.66;100.00
77147;BME280;66121;52.584;9.694;2024-01-30T02:04:57;102347.06;;;5.73;100.00
77147;BME280;66121;52.584;9.694;2024-01-30T02:07:23;102344.06;;;5.61;100.00
77147;BME280;66121;52.584;9.694;2024-01-30T02:09:49;102344.13;;;5.48;100.00
77147;BME280;66121;52.584;9.694;2024-01-30T02:12:14;102342.72;;;5.50;100.00
77147;BME280;66121;52.584;9.694;2024-01-30T02:14:46;102338.06;;;5.37;100.00
77147;BME280;66121;52.584;9.694;2024-01-30T02:17:12;102341.50;;;5.43;100.00
77147;BME280;66121;52.584;9.694;2024-01-30T02:19:38;102339.47;;;5.48;100.00
77147;BME280;66121;52.584;9.694;2024-01-30T02:22:04;102338.84;;;5.15;100.00
77147;BME280;66121;52.584;9.694;2024-01-30T02:24:29;102331.34;;;5.07;100.00
77147;BME280;66121;52.584;9.694;2024-01-30T02:26:55;102339.97;;;5.01;100.00
77147;BME280;66121;52.584;9.694;2024-01-30T02:29:20;102332.84;;;4.86;100.00
77147;BME280;66121;52.584;9.694;2024-01-30T02:31:46;102341.66;;;4.97;100.00
77147;BME280;66121;52.584;9.694;2024-01-30T02:34:11;102296.63;;;4.67;100.00
77147;BME280;66121;52.584;9.694;2024-01-30T02:36:36;102334.88;;;4.94;100.00
77147;BME280;66121;52.584;9.694;2024-01-30T02:39:03;102334.47;;;5.14;100.00
77147;BME280;66121;52.584;9.694;2024-01-30T02:41:28;102328.75;;;5.38;100.00
77147;BME280;66121;52.584;9.694;2024-01-30T02:43:54;102312.81;;;5.40;100.00
77147;BME280;66121;52.584;9.694;2024-01-30T02:46:19;102321.00;;;5.76;100.00
77147;BME280;66121;52.584;9.694;2024-01-30T02:48:44;102308.72;;;5.87;100.00
77147;BME280;66121;52.584;9.694;2024-01-30T02:51:10;102307.59;;;5.88;100.00
77147;BME280;66121;52.584;9.694;2024-01-30T02:53:35;102294.28;;;5.81;100.00
77147;BME280;66121;52.584;9.694;2024-01-30T02:56:02;102300.38;;;5.92;100.00
77147;BME280;66121;52.584;9.694;2024-01-30T02:58:27;102277.47;;;5.88;100.00
77147;BME280;66121;52.584;9.694;2024-01-30T03:00:53;102273.81;;;6.01;100.00
77147;BME280;66121;52.584;9.694;2024-01-30T03:03:18;102280.94;;;6.02;100.00
77147;BME280;66121;52.584;9.694;2024-01-30T03:05:43;102272.72;;;6.02;100.00
77147;BME280;66121;52.584;9.694;2024-01-30T03:08:09;102273.16;;;5.96;100.00
77147;BME280;66121;52.584;9.694;2024-01-30T03:10:34;102281.25;;;6.01;100.00
77147;BME280;66121;52.584;9.694;2024-01-30T03:12:59;102266.75;;;6.00;100.00
77147;BME280;66121;52.584;9.694;2024-01-30T03:15:25;102273.03;;;6.01;100.00
77147;BME280;66121;52.584;9.694;2024-01-30T03:17:50;102271.72;;;5.98;100.00
77147;BME280;66121;52.584;9.694;2024-01-30T03:20:15;102253.69;;;5.83;100.00
77147;BME280;66121;52.584;9.694;2024-01-30T03:22:41;102272.34;;;5.95;100.00
77147;BME280;66121;52.584;9.694;2024-01-30T03:25:06;102269.00;;;5.98;100.00
77147;BME280;66121;52.584;9.694;2024-01-30T03:27:32;102276.41;;;5.98;100.00
77147;BME280;66121;52.584;9.694;2024-01-30T03:29:57;102266.56;;;5.97;100.00
77147;BME280;66121;52.584;9.694;2024-01-30T03:32:22;102274.91;;;5.92;100.00
77147;BME280;66121;52.584;9.694;2024-01-30T03:34:48;102272.03;;;5.97;100.00
77147;BME280;66121;52.584;9.694;2024-01-30T03:37:13;102268.81;;;5.95;100.00
77147;BME280;66121;52.584;9.694;2024-01-30T03:39:38;102283.19;;;6.00;100.00
77147;BME280;66121;52.584;9.694;2024-01-30T03:42:04;102264.94;;;5.96;100.00
77147;BME280;66121;52.584;9.694;2024-01-30T03:44:29;102262.97;;;5.88;100.00
77147;BME280;66121;52.584;9.694;2024-01-30T03:46:54;102267.53;;;5.78;100.00
77147;BME280;66121;52.584;9.694;2024-01-30T03:49:20;102268.31;;;5.93;100.00
77147;BME280;66121;52.584;9.694;2024-01-30T03:51:45;102267.56;;;6.01;100.00
77147;BME280;66121;52.584;9.694;2024-01-30T03:54:12;102257.97;;;5.90;100.00
77147;BME280;66121;52.584;9.694;2024-01-30T03:56:37;102247.25;;;5.79;100.00
77147;BME280;66121;52.584;9.694;2024-01-30T03:59:03;102267.81;;;5.91;100.00
77147;BME280;66121;52.584;9.694;2024-01-30T04:01:28;102277.63;;;5.92;100.00
77147;BME280;66121;52.584;9.694;2024-01-30T04:03:53;102272.66;;;5.94;100.00
77147;BME280;66121;52.584;9.694;2024-01-30T04:06:19;102260.09;;;5.93;100.00
77147;BME280;66121;52.584;9.694;2024-01-30T04:08:44;102263.69;;;6.02;100.00
77147;BME280;66121;52.584;9.694;2024-01-30T04:11:09;102263.06;;;6.05;100.00
77147;BME280;66121;52.584;9.694;2024-01-30T04:13:35;102261.75;;;6.02;100.00
77147;BME280;66121;52.584;9.694;2024-01-30T04:16:01;102262.47;;;6.16;100.00
77147;BME280;66121;52.584;9.694;2024-01-30T04:18:27;102249.56;;;6.08;100.00
77147;BME280;66121;52.584;9.694;2024-01-30T04:20:53;102254.09;;;6.13;100.00
77147;BME280;66121;52.584;9.694;2024-01-30T04:23:18;102251.69;;;6.20;100.00
77147;BME280;66121;52.584;9.694;2024-01-30T04:25:43;102252.81;;;6.19;100.00
77147;BME280;66121;52.584;9.694;2024-01-30T04:28:09;102245.84;;;6.13;100.00
77147;BME280;66121;52.584;9.694;2024-01-30T04:30:37;102247.47;;;6.14;100.00
77147;BME280;66121;52.584;9.694;2024-01-30T04:33:02;102262.47;;;6.16;100.00
77147;BME280;66121;52.584;9.694;2024-01-30T04:35:28;102258.41;;;6.14;100.00
77147;BME280;66121;52.584;9.694;2024-01-30T04:37:53;102263.38;;;6.03;100.00
77147;BME280;66121;52.584;9.694;2024-01-30T04:40:20;102260.44;;;6.00;100.00
77147;BME280;66121;52.584;9.694;2024-01-30T04:42:45;102254.78;;;5.96;100.00
77147;BME280;66121;52.584;9.694;2024-01-30T04:45:10;102267.84;;;5.99;100.00
77147;BME280;66121;52.584;9.694;2024-01-30T04:47:36;102267.38;;;5.97;100.00
77147;BME280;66121;52.584;9.694;2024-01-30T04:50:02;102264.75;;;5.92;100.00
77147;BME280;66121;52.584;9.694;2024-01-30T04:52:29;102250.88;;;5.89;100.00
77147;BME280;66121;52.584;9.694;2024-01-30T04:54:55;102249.28;;;5.96;100.00
77147;BME280;66121;52.584;9.694;2024-01-30T04:57:20;102251.28;;;6.04;100.00
77147;BME280;66121;52.584;9.694;2024-01-30T04:59:45;102255.47;;;6.02;100.00
77147;BME280;66121;52.584;9.694;2024-01-30T05:02:11;102254.78;;;5.96;100.00
77147;BME280;66121;52.584;9.694;2024-01-30T05:04:36;102252.84;;;5.97;100.00
77147;BME280;66121;52.584;9.694;2024-01-30T05:07:01;102254.47;;;5.98;100.00
77147;BME280;66121;52.584;9.694;2024-01-30T05:09:27;102250.44;;;5.95;100.00
77147;BME280;66121;52.584;9.694;2024-01-30T05:11:53;102253.66;;;5.97;100.00
77147;BME280;66121;52.584;9.694;2024-01-30T05:14:18;102234.50;;;5.97;100.00
77147;BME280;66121;52.584;9.694;2024-01-30T05:16:44;102241.06;;;5.96;100.00
77147;BME280;66121;52.584;9.694;2024-01-30T05:19:13;102248.06;;;6.02;100.00
77147;BME280;66121;52.584;9.694;2024-01-30T05:21:38;102225.44;;;5.88;100.00
77147;BME280;66121;52.584;9.694;2024-01-30T05:24:04;102238.88;;;6.07;100.00
77147;BME280;66121;52.584;9.694;2024-01-30T05:26:29;102243.91;;;6.13;100.00
77147;BME280;66121;52.584;9.694;2024-01-30T05:28:55;102241.16;;;6.13;100.00
77147;BME280;66121;52.584;9.694;2024-01-30T05:31:20;102234.09;;;6.12;100.00
77147;BME280;66121;52.584;9.694;2024-01-30T05:33:46;102238.06;;;6.06;100.00
77147;BME280;66121;52.584;9.694;2024-01-30T05:36:12;102236.50;;;6.14;100.00
77147;BME280;66121;52.584;9.694;2024-01-30T05:38:41;102240.88;;;6.15;100.00
77147;BME280;66121;52.584;9.694;2024-01-30T05:41:06;102236.47;;;6.05;100.00
77147;BME280;66121;52.584;9.694;2024-01-30T05:43:31;102236.16;;;6.07;100.00
77147;BME280;66121;52.584;9.694;2024-01-30T05:45:56;102228.38;;;6.00;100.00
77147;BME280;66121;52.584;9.694;2024-01-30T05:48:22;102217.06;;;5.93;100.00
77147;BME280;66121;52.584;9.694;2024-01-30T05:50:47;102225.44;;;5.97;100.00
77147;BME280;66121;52.584;9.694;2024-01-30T05:53:12;102238.72;;;6.03;100.00
77147;BME280;66121;52.584;9.694;2024-01-30T05:55:38;102238.06;;;6.06;100.00
77147;BME280;66121;52.584;9.694;2024-01-30T05:58:03;102232.91;;;6.05;100.00
77147;BME280;66121;52.584;9.694;2024-01-30T06:00:29;102231.28;;;6.04;100.00
77147;BME280;66121;52.584;9.694;2024-01-30T06:02:54;102240.47;;;5.99;100.00
77147;BME280;66121;52.584;9.694;2024-01-30T06:05:20;102227.25;;;6.01;100.00
77147;BME280;66121;52.584;9.694;2024-01-30T06:07:45;102219.00;;;5.93;100.00
77147;BME280;66121;52.584;9.694;2024-01-30T06:10:11;102215.31;;;5.97;100.00
77147;BME280;66121;52.584;9.694;2024-01-30T06:12:36;102222.72;;;5.97;100.00
77147;BME280;66121;52.584;9.694;2024-01-30T06:15:02;102218.53;;;5.99;100.00
77147;BME280;66121;52.584;9.694;2024-01-30T06:17:29;102215.63;;;5.96;100.00
77147;BME280;66121;52.584;9.694;2024-01-30T06:19:54;102212.84;;;5.87;100.00
77147;BME280;66121;52.584;9.694;2024-01-30T06:22:20;102226.41;;;5.92;100.00
77147;BME280;66121;52.584;9.694;2024-01-30T06:24:45;102215.91;;;5.86;100.00
77147;BME280;66121;52.584;9.694;2024-01-30T06:27:13;102217.81;;;5.85;100.00
77147;BME280;66121;52.584;9.694;2024-01-30T06:29:38;102224.38;;;5.84;100.00
77147;BME280;66121;52.584;9.694;2024-01-30T06:32:04;102218.41;;;5.82;100.00
77147;BME280;66121;52.584;9.694;2024-01-30T06:34:29;102223.09;;;5.81;100.00
77147;BME280;66121;52.584;9.694;2024-01-30T06:36:55;102226.09;;;5.71;100.00
77147;BME280;66121;52.584;9.694;2024-01-30T06:39:20;102218.00;;;5.66;100.00
77147;BME280;66121;52.584;9.694;2024-01-30T06:41:46;102229.44;;;5.68;100.00
77147;BME280;66121;52.584;9.694;2024-01-30T06:44:12;102215.38;;;5.61;100.00
77147;BME280;66121;52.584;9.694;2024-01-30T06:46:38;102220.72;;;5.66;100.00
77147;BME280;66121;52.584;9.694;2024-01-30T06:49:03;102230.25;;;5.69;100.00
77147;BME280;66121;52.584;9.694;2024-01-30T06:51:29;102229.56;;;5.63;100.00
77147;BME280;66121;52.584;9.694;2024-01-30T06:53:54;102223.56;;;5.53;100.00
77147;BME280;66121;52.584;9.694;2024-01-30T06:56:19;102238.91;;;5.62;100.00
77147;BME280;66121;52.584;9.694;2024-01-30T06:58:49;102245.22;;;5.63;100.00
77147;BME280;66121;52.584;9.694;2024-01-30T07:01:15;102240.97;;;5.57;100.00
77147;BME280;66121;52.584;9.694;2024-01-30T07:03:41;102233.25;;;5.59;100.00
77147;BME280;66121;52.584;9.694;2024-01-30T07:06:07;102249.41;;;5.69;100.00
77147;BME280;66121;52.584;9.694;2024-01-30T07:08:32;102236.19;;;5.62;100.00
77147;BME280;66121;52.584;9.694;2024-01-30T07:10:58;102229.03;;;5.53;100.00
77147;BME280;66121;52.584;9.694;2024-01-30T07:13:23;102216.91;;;5.45;100.00
77147;BME280;66121;52.584;9.694;2024-01-30T07:15:49;102232.63;;;5.62;100.00
77147;BME280;66121;52.584;9.694;2024-01-30T07:18:14;102240.34;;;5.60;100.00
77147;BME280;66121;52.584;9.694;2024-01-30T07:20:40;102222.00;;;5.60;100.00
77147;BME280;66121;52.584;9.694;2024-01-30T07:23:14;102242.03;;;5.69;100.00
77147;BME280;66121;52.584;9.694;2024-01-30T07:25:41;102229.06;;;5.61;100.00
77147;BME280;66121;52.584;9.694;2024-01-30T07:28:10;102238.16;;;5.70;100.00
77147;BME280;66121;52.584;9.694;2024-01-30T07:30:36;102237.03;;;5.71;100.00
77147;BME280;66121;52.584;9.694;2024-01-30T07:33:02;102223.78;;;5.65;100.00
77147;BME280;66121;52.584;9.694;2024-01-30T07:35:27;102222.28;;;5.81;100.00
77147;BME280;66121;52.584;9.694;2024-01-30T07:37:53;102225.81;;;5.81;100.00
77147;BME280;66121;52.584;9.694;2024-01-30T07:40:18;102220.97;;;5.78;100.00
77147;BME280;66121;52.584;9.694;2024-01-30T07:42:43;102226.63;;;5.82;100.00
77147;BME280;66121;52.584;9.694;2024-01-30T07:45:09;102229.19;;;5.78;100.00
77147;BME280;66121;52.584;9.694;2024-01-30T07:47:34;102227.25;;;5.79;100.00
77147;BME280;66121;52.584;9.694;2024-01-30T07:50:00;102229.69;;;5.80;100.00
77147;BME280;66121;52.584;9.694;2024-01-30T07:52:25;102228.78;;;5.85;100.00
77147;BME280;66121;52.584;9.694;2024-01-30T07:54:51;102229.13;;;5.92;100.00
77147;BME280;66121;52.584;9.694;2024-01-30T07:57:16;102211.28;;;5.95;100.00
77147;BME280;66121;52.584;9.694;2024-01-30T07:59:43;102206.91;;;5.94;100.00
77147;BME280;66121;52.584;9.694;2024-01-30T08:02:09;102206.75;;;5.99;100.00
77147;BME280;66121;52.584;9.694;2024-01-30T08:04:35;102196.31;;;6.01;100.00
77147;BME280;66121;52.584;9.694;2024-01-30T08:07:01;102193.44;;;6.06;100.00
77147;BME280;66121;52.584;9.694;2024-01-30T08:09:26;102191.00;;;6.04;100.00
77147;BME280;66121;52.584;9.694;2024-01-30T08:11:51;102195.03;;;6.07;100.00
77147;BME280;66121;52.584;9.694;2024-01-30T08:14:17;102183.81;;;6.17;100.00
77147;BME280;66121;52.584;9.694;2024-01-30T08:16:42;102187.38;;;6.26;100.00
77147;BME280;66121;52.584;9.694;2024-01-30T08:19:07;102190.78;;;6.31;100.00
77147;BME280;66121;52.584;9.694;2024-01-30T08:21:33;102172.22;;;6.28;100.00
77147;BME280;66121;52.584;9.694;2024-01-30T08:24:05;102188.22;;;6.43;99.89
77147;BME280;66121;52.584;9.694;2024-01-30T08:26:32;102179.84;;;6.40;99.68
77147;BME280;66121;52.584;9.694;2024-01-30T08:28:57;102177.94;;;6.49;99.47
77147;BME280;66121;52.584;9.694;2024-01-30T08:31:22;102157.63;;;6.50;99.33
77147;BME280;66121;52.584;9.694;2024-01-30T08:33:48;102163.91;;;6.59;99.08
77147;BME280;66121;52.584;9.694;2024-01-30T08:36:13;102179.09;;;6.65;98.76
77147;BME280;66121;52.584;9.694;2024-01-30T08:38:39;102170.88;;;6.65;98.47
77147;BME280;66121;52.584;9.694;2024-01-30T08:41:04;102156.50;;;6.60;98.07
77147;BME280;66121;52.584;9.694;2024-01-30T08:43:30;102162.13;;;6.63;98.06
77147;BME280;66121;52.584;9.694;2024-01-30T08:45:55;102141.84;;;6.56;97.56
77147;BME280;66121;52.584;9.694;2024-01-30T08:48:22;102165.38;;;6.74;97.54
77147;BME280;66121;52.584;9.694;2024-01-30T08:50:47;102149.25;;;6.72;97.14
77147;BME280;66121;52.584;9.694;2024-01-30T08:53:13;102151.81;;;6.69;96.74
77147;BME280;66121;52.584;9.694;2024-01-30T08:55:38;102146.38;;;6.77;96.97
77147;BME280;66121;52.584;9.694;2024-01-30T08:58:04;102149.44;;;6.84;96.42
77147;BME280;66121;52.584;9.694;2024-01-30T09:00:30;102137.97;;;6.82;96.60
77147;BME280;66121;52.584;9.694;2024-01-30T09:02:55;102147.16;;;7.03;96.38
77147;BME280;66121;52.584;9.694;2024-01-30T09:05:20;102141.84;;;7.07;96.13
77147;BME280;66121;52.584;9.694;2024-01-30T09:07:46;102141.81;;;7.15;95.84
77147;BME280;66121;52.584;9.694;2024-01-30T09:10:11;102128.59;;;7.18;95.59
77147;BME280;66121;52.584;9.694;2024-01-30T09:12:37;102129.22;;;7.32;95.09
77147;BME280;66121;52.584;9.694;2024-01-30T09:15:03;102130.81;;;7.41;94.62
77147;BME280;66121;52.584;9.694;2024-01-30T09:17:28;102127.88;;;7.55;94.32
77147;BME280;66121;52.584;9.694;2024-01-30T09:19:55;102125.44;;;7.62;93.56
77147;BME280;66121;52.584;9.694;2024-01-30T09:22:20;102125.19;;;7.75;93.36
77147;BME280;66121;52.584;9.694;2024-01-30T09:24:45;102128.59;;;7.81;92.72
77147;BME280;66121;52.584;9.694;2024-01-30T09:27:11;102120.25;;;7.98;92.03
77147;BME280;66121;52.584;9.694;2024-01-30T09:29:36;102114.09;;;8.01;91.61
77147;BME280;66121;52.584;9.694;2024-01-30T09:32:01;102113.09;;;8.06;90.95
77147;BME280;66121;52.584;9.694;2024-01-30T09:34:27;102117.28;;;8.12;90.16
77147;BME280;66121;52.584;9.694;2024-01-30T09:36:52;102115.63;;;8.19;90.29
77147;BME280;66121;52.584;9.694;2024-01-30T09:39:17;102108.97;;;8.20;90.13
77147;BME280;66121;52.584;9.694;2024-01-30T09:41:48;102112.59;;;8.12;89.18
77147;BME280;66121;52.584;9.694;2024-01-30T09:44:20;102099.44;;;8.18;89.04
77147;BME280;66121;52.584;9.694;2024-01-30T09:46:47;102101.22;;;8.22;88.43
77147;BME280;66121;52.584;9.694;2024-01-30T09:49:13;102096.50;;;8.23;88.40
77147;BME280;66121;52.584;9.694;2024-01-30T09:51:39;102103.44;;;8.37;88.27
77147;BME280;66121;52.584;9.694;2024-01-30T09:54:06;102081.81;;;8.27;88.10
77147;BME280;66121;52.584;9.694;2024-01-30T09:56:33;102081.13;;;8.30;87.75
77147;BME280;66121;52.584;9.694;2024-01-30T09:58:58;102093.22;;;8.38;87.65
77147;BME280;66121;52.584;9.694;2024-01-30T10:01:25;102079.84;;;8.28;87.57
77147;BME280;66121;52.584;9.694;2024-01-30T10:03:50;102090.34;;;8.34;87.26
77147;BME280;66121;52.584;9.694;2024-01-30T10:06:18;102095.53;;;8.57;87.54
77147;BME280;66121;52.584;9.694;2024-01-30T10:08:44;102094.28;;;8.46;86.92
77147;BME280;66121;52.584;9.694;2024-01-30T10:11:09;102086.50;;;8.48;86.68
77147;BME280;66121;52.584;9.694;2024-01-30T10:13:34;102081.09;;;8.39;86.98
77147;BME280;66121;52.584;9.694;2024-01-30T10:16:00;102090.22;;;8.52;87.17
77147;BME280;66121;52.584;9.694;2024-01-30T10:18:28;102077.47;;;8.47;87.24
77147;BME280;66121;52.584;9.694;2024-01-30T10:20:54;102059.81;;;8.48;86.98
77147;BME280;66121;52.584;9.694;2024-01-30T10:23:19;102074.91;;;8.63;86.40
77147;BME280;66121;52.584;9.694;2024-01-30T10:25:45;102078.66;;;8.79;86.84
77147;BME280;66121;52.584;9.694;2024-01-30T10:28:11;102068.22;;;8.72;86.33
77147;BME280;66121;52.584;9.694;2024-01-30T10:30:36;102072.97;;;8.84;85.76
77147;BME280;66121;52.584;9.694;2024-01-30T10:33:02;102059.53;;;8.82;85.79
77147;BME280;66121;52.584;9.694;2024-01-30T10:35:27;102068.72;;;8.86;85.61
77147;BME280;66121;52.584;9.694;2024-01-30T10:37:56;102054.75;;;8.91;84.99
77147;BME280;66121;52.584;9.694;2024-01-30T10:40:28;102054.09;;;8.94;84.65
77147;BME280;66121;52.584;9.694;2024-01-30T10:42:55;102064.47;;;9.10;85.12
77147;BME280;66121;52.584;9.694;2024-01-30T10:45:22;102054.34;;;9.01;84.71
77147;BME280;66121;52.584;9.694;2024-01-30T10:47:53;102060.44;;;9.07;84.09
77147;BME280;66121;52.584;9.694;2024-01-30T10:50:19;102041.91;;;8.95;84.32
77147;BME280;66121;52.584;9.694;2024-01-30T10:52:46;102014.56;;;8.78;84.25
77147;BME280;66121;52.584;9.694;2024-01-30T10:55:13;102052.38;;;9.02;84.28
77147;BME280;66121;52.584;9.694;2024-01-30T10:57:40;102051.44;;;8.98;84.09
77147;BME280;66121;52.584;9.694;2024-01-30T11:00:11;102050.09;;;9.04;84.39
77147;BME280;66121;52.584;9.694;2024-01-30T11:02:41;102053.78;;;9.08;85.16
77147;BME280;66121;52.584;9.694;2024-01-30T11:05:08;102053.66;;;9.04;85.29
77147;BME280;66121;52.584;9.694;2024-01-30T11:07:34;102065.63;;;9.21;85.00
77147;BME280;66121;52.584;9.694;2024-01-30T11:10:00;102058.63;;;9.23;84.71
77147;BME280;66121;52.584;9.694;2024-01-30T11:12:30;102053.94;;;9.24;84.65
77147;BME280;66121;52.584;9.694;2024-01-30T11:15:05;102052.19;;;9.19;84.97
77147;BME280;66121;52.584;9.694;2024-01-30T11:20:10;102049.69;;;9.26;84.74
77147;BME280;66121;52.584;9.694;2024-01-30T11:22:37;102052.22;;;9.31;84.63
77147;BME280;66121;52.584;9.694;2024-01-30T11:25:02;102049.81;;;9.30;84.72
77147;BME280;66121;52.584;9.694;2024-01-30T11:27:30;102046.16;;;9.38;84.59
77147;BME280;66121;52.584;9.694;2024-01-30T11:30:01;102056.41;;;9.49;84.39
77147;BME280;66121;52.584;9.694;2024-01-30T11:32:26;102043.84;;;9.40;84.04
77147;BME280;66121;52.584;9.694;2024-01-30T11:34:53;102049.13;;;9.45;84.12
77147;BME280;66121;52.584;9.694;2024-01-30T11:37:19;102045.72;;;9.48;83.54
77147;BME280;66121;52.584;9.694;2024-01-30T11:39:48;102033.63;;;9.40;84.16
77147;BME280;66121;52.584;9.694;2024-01-30T11:42:13;102036.19;;;9.45;83.42
77147;BME280;66121;52.584;9.694;2024-01-30T11:44:38;102035.84;;;9.47;83.55
77147;BME280;66121;52.584;9.694;2024-01-30T11:47:04;102039.75;;;9.58;83.54
77147;BME280;66121;52.584;9.694;2024-01-30T11:49:29;102029.66;;;9.74;83.48
77147;BME280;66121;52.584;9.694;2024-01-30T11:51:55;102027.50;;;9.80;83.02
77147;BME280;66121;52.584;9.694;2024-01-30T11:54:20;102006.69;;;9.82;82.67
77147;BME280;66121;52.584;9.694;2024-01-30T11:56:45;102017.00;;;9.97;82.20
77147;BME280;66121;52.584;9.694;2024-01-30T11:59:11;102005.72;;;10.26;82.42
77147;BME280;66121;52.584;9.694;2024-01-30T12:01:36;101991.09;;;10.38;81.09
77147;BME280;66121;52.584;9.694;2024-01-30T12:04:02;101984.88;;;10.69;80.43
77147;BME280;66121;52.584;9.694;2024-01-30T12:06:28;101955.25;;;10.97;79.03
77147;BME280;66121;52.584;9.694;2024-01-30T12:08:58;101929.69;;;11.16;77.26
77147;BME280;66121;52.584;9.694;2024-01-30T12:11:24;101931.41;;;11.86;77.01
77147;BME280;66121;52.584;9.694;2024-01-30T12:13:51;101928.09;;;11.96;75.81
77147;BME280;66121;52.584;9.694;2024-01-30T12:16:16;101916.78;;;11.86;73.74
77147;BME280;66121;52.584;9.694;2024-01-30T12:18:42;101926.19;;;12.00;74.19
77147;BME280;66121;52.584;9.694;2024-01-30T12:21:07;101932.47;;;11.82;73.75
77147;BME280;66121;52.584;9.694;2024-01-30T12:23:34;101940.00;;;11.81;73.59
77147;BME280;66121;52.584;9.694;2024-01-30T12:26:01;101953.94;;;12.04;74.11
77147;BME280;66121;52.584;9.694;2024-01-30T12:28:27;101940.72;;;11.97;73.20
77147;BME280;66121;52.584;9.694;2024-01-30T12:30:56;101934.75;;;11.76;73.17
77147;BME280;66121;52.584;9.694;2024-01-30T12:33:26;101965.94;;;11.77;74.76
77147;BME280;66121;52.584;9.694;2024-01-30T12:35:52;101965.50;;;11.75;74.20
77147;BME280;66121;52.584;9.694;2024-01-30T12:38:17;101982.28;;;11.66;75.55
77147;BME280;66121;52.584;9.694;2024-01-30T12:40:42;101987.69;;;11.62;75.55
77147;BME280;66121;52.584;9.694;2024-01-30T12:43:08;101987.53;;;11.40;76.17
77147;BME280;66121;52.584;9.694;2024-01-30T12:45:33;101993.31;;;11.35;76.93
77147;BME280;66121;52.584;9.694;2024-01-30T12:47:59;102010.63;;;11.47;77.10